Time;durP1;ratioP1;P1;durP2;ratioP2;P2;SDS_P1;SDS_P2;PMS_P1;PMS_P2;Temp;Humidity;BMP_temperature;BMP_pressure;BME280_temperature;BME280_humidity;BME280_pressure;Samples;Min_cycle;Max_cycle;Signal;HPM_P1;HPM_P2
2022/04/16 00:00:33;;;;;;;10.43;4.22;;;;;;;9.45;75.45;101598.16;6263490;22;20041;-73
2022/04/16 00:02:59;;;;;;;6.95;4.03;;;;;;;9.34;75.56;101583.38;6203206;22;20446;-73
2022/04/16 00:05:24;;;;;;;5.70;3.05;;;;;;;9.47;76.02;101608.84;6248964;22;20084;-73
2022/04/16 00:08:08;;;;;;;3.60;2.85;;;;;;;9.43;74.97;101597.53;6203627;22;20015;-73
2022/04/16 00:10:35;;;;;;;4.32;2.85;;;;;;;9.28;75.08;101580.75;6285162;22;20011;-75
2022/04/16 00:23:19;;;;;;;4.25;2.85;;;;;;;9.18;75.44;101587.56;6276618;22;20018;-76
2022/04/16 00:26:16;;;;;;;3.72;2.60;;;;;;;9.34;75.81;101607.13;6252243;22;20007;-76
2022/04/16 00:29:30;;;;;;;;;;;;;;;;;;;;;
2022/04/16 00:32:51;;;;;;;;;;;;;;;;;;;;;
2022/04/16 00:35:27;;;;;;;4.53;2.78;;;;;;;9.15;76.25;101579.84;6245548;22;20023;-74
2022/04/16 00:42:22;;;;;;;3.50;2.53;;;;;;;9.31;75.89;101604.84;6039107;23;20012;-76
2022/04/16 00:51:36;;;;;;;3.92;2.80;;;;;;;9.15;76.67;101589.94;6162099;23;20011;-76
2022/04/16 00:55:14;;;;;;;;;;;;;;;;;;;;;
2022/04/16 00:57:52;;;;;;;;;;;;;;;9.17;76.91;101605.00;6270687;22;20008;-76
2022/04/16 01:00:17;;;;;;;3.97;2.53;;;;;;;8.94;77.31;101566.66;6280351;22;19910;-74
2022/04/16 01:02:53;;;;;;;3.45;2.00;;;;;;;8.94;76.75;101572.13;6252756;22;20426;-74
2022/04/16 01:05:21;;;;;;;3.42;1.90;;;;;;;8.82;76.82;101558.38;6227390;22;20007;-75
2022/04/16 01:08:08;;;;;;;;;;;;;;;;;;;;;
2022/04/16 01:10:37;;;;;;;4.75;1.95;;;;;;;9.04;76.86;101599.72;6279342;22;20035;-74
2022/04/16 01:13:06;;;;;;;4.15;2.45;;;;;;;8.89;76.83;101575.50;6280212;22;20011;-75
2022/04/16 01:15:32;;;;;;;3.03;2.20;;;;;;;9.05;77.78;101602.22;6253639;22;20047;-73
2022/04/16 01:18:01;;;;;;;6.65;2.33;;;;;;;9.02;77.66;101610.00;6253082;22;20011;-75
2022/04/16 01:20:33;;;;;;;5.22;2.42;;;;;;;8.98;77.60;101600.59;6279377;22;19995;-75
2022/04/16 01:22:59;;;;;;;3.72;2.63;;;;;;;8.99;77.82;101605.81;6226790;22;20023;-75
2022/04/16 01:25:27;;;;;;;4.30;2.30;;;;;;;8.87;77.79;101589.38;6225370;22;20099;-75
2022/04/16 01:27:55;;;;;;;4.75;2.92;;;;;;;8.85;77.75;101586.06;6253993;22;20000;-75
2022/04/16 01:30:22;;;;;;;4.45;2.08;;;;;;;8.89;77.58;101602.78;6227550;22;20031;-74
2022/04/16 01:32:52;;;;;;;5.70;3.00;;;;;;;8.93;77.67;101604.00;6280420;22;20000;-76
2022/04/16 01:35:18;;;;;;;3.08;2.30;;;;;;;8.79;77.54;101584.25;6253212;22;20027;-74
2022/04/16 01:37:43;;;;;;;7.18;2.42;;;;;;;8.86;77.81;101597.78;6252896;22;20007;-74
2022/04/16 01:40:11;;;;;;;2.00;1.80;;;;;;;8.87;77.41;101594.84;6200835;22;20003;-73
2022/04/16 01:42:37;;;;;;;4.25;2.58;;;;;;;8.95;77.84;101617.44;6202260;22;20091;-72
2022/04/16 01:45:11;;;;;;;4.03;2.63;;;;;;;8.81;77.58;101595.75;6249364;22;20037;-72
2022/04/16 01:47:38;;;;;;;5.03;2.80;;;;;;;8.94;78.20;101610.31;6274545;22;20053;-73
2022/04/16 01:50:23;;;;;;;3.90;2.20;;;;;;;8.79;78.02;101597.88;6276842;22;20317;-74
2022/04/16 01:56:23;;;;;;;5.03;2.80;;;;;;;8.87;77.50;101610.38;6107834;23;20298;-73
2022/04/16 01:59:11;;;;;;;;;;;;;;;;;;;;;
2022/04/16 02:01:45;;;;;;;4.45;2.40;;;;;;;8.81;78.29;101612.09;6153636;23;20133;-73
2022/04/16 02:04:10;;;;;;;3.10;1.98;;;;;;;8.74;77.72;101600.44;6152223;23;20064;-74
2022/04/16 02:06:36;;;;;;;2.03;1.60;;;;;;;8.74;77.67;101606.69;6211368;22;20058;-75
2022/04/16 02:10:05;;;;;;;3.35;1.75;;;;;;;8.48;77.79;101575.06;6276470;22;20079;-74
2022/04/16 02:18:52;;;;;;;2.10;1.70;;;;;;;8.52;78.52;101614.47;6180315;23;20020;-73
2022/04/16 02:31:42;;;;;;;2.42;1.30;;;;;;;8.11;78.09;101574.13;6123051;23;20002;-75
2022/04/16 02:34:11;;;;;;;3.58;1.80;;;;;;;8.23;78.22;101607.75;6181366;23;20009;-77
2022/04/16 02:36:37;;;;;;;1.55;1.45;;;;;;;8.19;78.33;101603.81;6235503;23;20008;-74
2022/04/16 02:39:04;;;;;;;3.17;2.00;;;;;;;8.16;78.18;101605.09;6216833;23;20078;-74
2022/04/16 02:41:30;;;;;;;2.90;2.15;;;;;;;8.12;78.26;101598.41;6192767;23;20030;-74
2022/04/16 02:43:57;;;;;;;6.82;4.65;;;;;;;8.14;78.16;101607.19;6191319;23;20427;-73
2022/04/16 02:49:12;;;;;;;6.68;4.28;;;;;;;8.25;79.07;101629.34;6246383;23;20115;-74
2022/04/16 02:51:38;;;;;;;6.35;4.53;;;;;;;8.13;79.18;101616.44;6243822;23;20012;-73
2022/04/16 02:54:05;;;;;;;6.40;4.43;;;;;;;8.19;79.46;101626.44;6219049;23;20083;-74
2022/04/16 02:56:31;;;;;;;8.32;4.72;;;;;;;8.19;79.05;101631.91;6245487;23;20007;-74
2022/04/16 02:58:56;;;;;;;5.85;4.13;;;;;;;8.23;80.04;101631.47;6245524;23;20126;-74
2022/04/16 03:01:22;;;;;;;5.72;3.78;;;;;;;8.23;79.56;101626.00;6219769;23;20046;-74
2022/04/16 03:03:47;;;;;;;5.53;3.83;;;;;;;8.23;79.24;101624.09;6245609;23;20000;-75
2022/04/16 03:06:12;;;;;;;5.57;3.63;;;;;;;8.19;79.37;101625.59;6219244;23;20414;-76
2022/04/16 03:08:38;;;;;;;5.78;4.40;;;;;;;8.20;79.47;101619.94;6218062;23;20086;-74
2022/04/16 03:11:07;;;;;;;5.80;4.10;;;;;;;8.19;79.90;101621.00;6241771;23;20004;-74
2022/04/16 03:13:35;;;;;;;5.57;4.45;;;;;;;8.25;79.66;101623.88;6190934;23;20024;-74
2022/04/16 03:18:45;;;;;;;6.22;3.75;;;;;;;8.21;80.11;101624.31;6245934;23;20078;-74
2022/04/16 03:21:11;;;;;;;3.83;3.13;;;;;;;8.19;79.86;101621.00;6220892;23;20012;-73
2022/04/16 03:23:37;;;;;;;3.97;3.17;;;;;;;8.16;78.86;101626.91;6245899;23;20472;-74
2022/04/16 03:26:10;;;;;;;4.03;2.95;;;;;;;8.08;79.72;101618.97;6217743;23;20012;-75
2022/04/16 03:28:56;;;;;;;4.88;3.03;;;;;;;8.09;79.15;101620.66;6245955;23;20330;-75
2022/04/16 03:31:21;;;;;;;5.25;3.80;;;;;;;7.97;79.54;101608.78;6192904;23;20066;-73
2022/04/16 03:33:46;;;;;;;6.07;4.10;;;;;;;8.05;79.73;101619.41;6218079;23;20011;-74
2022/04/16 03:36:12;;;;;;;5.57;4.03;;;;;;;8.04;79.68;101618.59;6218224;23;20034;-74
2022/04/16 03:38:37;;;;;;;5.88;3.88;;;;;;;8.02;79.25;101614.41;6217070;23;20008;-73
2022/04/16 03:41:03;;;;;;;4.95;4.03;;;;;;;7.97;79.05;101617.81;6243614;23;20039;-73
2022/04/16 03:43:29;;;;;;;5.57;3.72;;;;;;;7.93;79.45;101622.03;6245231;23;20035;-72
2022/04/16 03:45:55;;;;;;;4.43;3.63;;;;;;;7.90;80.52;101618.88;6242498;23;20445;-73
2022/04/16 03:48:20;;;;;;;5.72;4.03;;;;;;;7.77;79.36;101609.75;6216553;23;20004;-75
2022/04/16 03:50:46;;;;;;;6.10;4.28;;;;;;;7.81;80.05;101621.88;6245240;23;20020;-74
2022/04/16 03:53:11;;;;;;;10.93;5.70;;;;;;;7.80;80.03;101624.81;6218499;23;20062;-73
2022/04/16 04:01:06;;;;;;;9.90;5.75;;;;;;;7.76;79.55;101626.31;6221606;23;20291;-74
2022/04/16 04:03:31;;;;;;;8.27;5.90;;;;;;;7.76;80.24;101623.59;6243034;23;20078;-73
2022/04/16 04:05:58;;;;;;;7.90;5.45;;;;;;;7.81;80.43;101638.22;6215267;23;20012;-74
2022/04/16 04:08:27;;;;;;;9.40;5.22;;;;;;;7.88;79.96;101637.34;6212177;23;20019;-74
2022/04/16 04:10:53;;;;;;;7.68;4.88;;;;;;;8.04;80.48;101645.00;6240410;23;20677;-76
2022/04/16 04:13:19;;;;;;;10.68;6.57;;;;;;;8.25;79.82;101638.38;6241705;23;20020;-70
2022/04/16 04:15:45;;;;;;;9.27;7.30;;;;;;;8.47;78.79;101644.31;6242352;23;20027;-73
2022/04/16 04:18:11;;;;;;;12.45;6.75;;;;;;;8.66;78.41;101647.06;6241680;23;20028;-73
2022/04/16 04:20:36;;;;;;;8.15;5.75;;;;;;;8.82;78.40;101645.66;6242420;23;20459;-73
2022/04/16 04:23:03;;;;;;;8.25;5.60;;;;;;;8.97;77.98;101642.59;6213033;23;20087;-75
2022/04/16 04:25:28;;;;;;;7.75;6.07;;;;;;;9.03;78.05;101636.22;6212350;23;20031;-73
2022/04/16 04:27:54;;;;;;;10.95;5.53;;;;;;;9.12;77.69;101644.97;6213511;23;20438;-73
2022/04/16 04:30:19;;;;;;;10.13;6.30;;;;;;;9.15;77.55;101641.78;6212595;23;20427;-74
2022/04/16 04:32:45;;;;;;;11.23;7.10;;;;;;;9.12;77.31;101640.31;6242717;23;20004;-74
2022/04/16 04:35:11;;;;;;;8.13;5.78;;;;;;;8.99;77.83;101632.28;6214985;23;20012;-73
2022/04/16 04:37:36;;;;;;;7.10;5.47;;;;;;;8.91;77.98;101638.88;6210543;23;20489;-74
2022/04/16 04:40:02;;;;;;;8.25;5.25;;;;;;;8.84;78.34;101649.84;6241295;23;20395;-73
2022/04/16 04:42:30;;;;;;;7.40;5.65;;;;;;;8.78;78.67;101644.47;6211510;23;20008;-74
2022/04/16 04:44:56;;;;;;;8.10;5.53;;;;;;;8.66;78.21;101636.16;6239811;23;20003;-74
2022/04/16 04:47:22;;;;;;;7.80;5.60;;;;;;;8.62;79.23;101646.69;6217087;23;20008;-74
2022/04/16 04:49:49;;;;;;;8.80;6.10;;;;;;;8.58;78.80;101648.19;6243116;23;20004;-75
2022/04/16 04:52:30;;;;;;;7.55;5.55;;;;;;;8.50;79.00;101632.94;6196314;23;20008;-75
2022/04/16 04:54:57;;;;;;;6.75;4.85;;;;;;;8.64;78.90;101651.91;6215494;23;20004;-75
2022/04/16 04:57:25;;;;;;;7.38;5.00;;;;;;;8.62;78.95;101643.13;6251212;23;20020;-74
2022/04/16 05:00:00;;;;;;;5.43;4.85;;;;;;;8.67;79.55;101644.16;6201045;23;20012;-75
2022/04/16 05:03:21;;;;;;;15.00;9.23;;;;;;;8.54;79.49;101638.78;6217818;23;20004;-74
2022/04/16 05:05:47;;;;;;;11.45;8.18;;;;;;;8.36;79.79;101625.91;6216453;23;20522;-74
2022/04/16 05:08:13;;;;;;;8.35;5.93;;;;;;;8.32;79.02;101635.56;6244145;23;20421;-74
2022/04/16 05:10:38;;;;;;;8.93;5.82;;;;;;;8.26;79.51;101642.75;6241763;23;20027;-75
2022/04/16 05:13:04;;;;;;;8.00;4.93;;;;;;;8.07;79.50;101633.66;6239741;23;20445;-74
2022/04/16 05:15:30;;;;;;;7.43;5.20;;;;;;;8.07;80.66;101650.00;6165859;23;20036;-73
2022/04/16 05:17:56;;;;;;;7.50;4.20;;;;;;;8.06;79.83;101653.78;6167330;23;20439;-73
2022/04/16 05:20:35;;;;;;;8.75;4.20;;;;;;;8.00;80.29;101643.75;6167597;23;20091;-74
2022/04/16 05:23:14;;;;;;;7.38;4.55;;;;;;;7.98;79.99;101646.69;6209468;23;20042;-74
2022/04/16 05:26:22;;;;;;;6.55;4.20;;;;;;;7.97;80.12;101655.09;6243202;23;20015;-73
2022/04/16 05:28:58;;;;;;;5.55;4.45;;;;;;;7.92;79.51;101646.75;6198980;23;20031;-74
2022/04/16 05:38:18;;;;;;;11.85;7.32;;;;;;;7.90;79.52;101643.38;6080612;23;20150;-73
2022/04/16 05:40:44;;;;;;;12.25;6.78;;;;;;;8.04;80.22;101662.19;6160605;23;20032;-74
2022/04/16 05:43:09;;;;;;;9.35;5.95;;;;;;;8.13;80.10;101676.38;6181132;23;20099;-75
2022/04/16 05:45:34;;;;;;;9.40;5.82;;;;;;;8.11;79.91;101672.19;6181779;23;20013;-72
2022/04/16 05:48:00;;;;;;;10.57;6.70;;;;;;;8.12;79.45;101668.41;6159593;23;20020;-74
2022/04/16 05:50:28;;;;;;;12.57;8.00;;;;;;;8.05;79.21;101660.28;6184385;23;20007;-74
2022/04/16 05:52:53;;;;;;;14.95;8.80;;;;;;;8.13;79.35;101670.94;6135657;23;20016;-76
2022/04/16 05:55:19;;;;;;;15.85;9.98;;;;;;;8.21;79.14;101678.00;6161282;23;20008;-74
2022/04/16 05:57:54;;;;;;;18.40;9.43;;;;;;;8.26;79.23;101680.06;6137098;23;20008;-76
2022/04/16 06:00:20;;;;;;;16.25;9.30;;;;;;;8.40;78.88;101681.66;6186832;23;20001;-75
2022/04/16 06:02:48;;;;;;;13.75;8.18;;;;;;;8.48;79.56;101686.03;6152775;23;20017;-74
2022/04/16 06:05:13;;;;;;;12.55;7.57;;;;;;;8.56;79.24;101675.69;6156767;23;20013;-74
2022/04/16 06:07:39;;;;;;;11.88;7.53;;;;;;;8.69;78.78;101695.72;6181161;23;20013;-75
2022/04/16 06:10:13;;;;;;;14.75;8.07;;;;;;;8.68;78.17;101673.06;6180989;23;20009;-77
2022/04/16 06:12:38;;;;;;;12.20;7.27;;;;;;;8.82;78.15;101673.78;6184379;23;20012;-74
2022/04/16 06:16:06;;;;;;;16.90;7.00;;;;;;;9.05;77.80;101694.13;6182038;23;20254;-73
2022/04/16 06:18:59;;;;;;;11.60;7.28;;;;;;;9.23;78.14;101694.16;6231220;23;20012;-72
2022/04/16 06:21:25;;;;;;;13.05;6.93;;;;;;;9.37;77.63;101691.28;6239821;23;20017;-74
2022/04/16 06:23:51;;;;;;;9.00;5.75;;;;;;;9.51;77.78;101692.81;6243973;23;20008;-72
2022/04/16 06:26:17;;;;;;;7.78;5.50;;;;;;;9.66;77.24;101694.31;6243722;23;20015;-73
2022/04/16 06:28:42;;;;;;;9.95;6.57;;;;;;;9.79;76.77;101696.88;6241851;23;20052;-73
2022/04/16 06:31:08;;;;;;;10.75;7.25;;;;;;;9.98;76.69;101696.88;6189755;23;20015;-74
2022/04/16 06:33:33;;;;;;;11.93;7.93;;;;;;;10.18;76.39;101700.16;6191396;23;20011;-73
2022/04/16 06:35:59;;;;;;;9.00;5.88;;;;;;;10.41;75.87;101690.38;6191714;23;20007;-74
2022/04/16 06:38:35;;;;;;;;;;;;;;;;;;;;;
2022/04/16 06:41:03;;;;;;;11.27;7.25;;;;;;;11.10;74.70;101709.03;6244120;23;20071;-75
2022/04/16 06:43:29;;;;;;;15.18;8.05;;;;;;;11.53;73.89;101685.88;6242344;23;20035;-73
2022/04/16 06:45:54;;;;;;;17.13;9.32;;;;;;;12.07;72.17;101690.28;6218164;23;20012;-75
2022/04/16 06:48:20;;;;;;;17.00;9.85;;;;;;;12.81;70.19;101711.31;6217061;23;20331;-75
2022/04/16 06:50:45;;;;;;;21.90;10.07;;;;;;;13.26;69.23;101702.13;6245084;23;20081;-74
2022/04/16 06:53:15;;;;;;;18.60;10.15;;;;;;;13.44;68.37;101688.09;6219603;23;20008;-75
2022/04/16 06:55:43;;;;;;;15.85;9.05;;;;;;;13.59;67.38;101684.75;6193802;23;20015;-74
2022/04/16 06:58:09;;;;;;;17.55;9.98;;;;;;;13.67;67.38;101690.84;6193770;23;20319;-73
2022/04/16 07:00:34;;;;;;;16.80;9.15;;;;;;;13.81;67.38;101702.31;6193081;23;20012;-75
2022/04/16 07:03:00;;;;;;;15.35;9.07;;;;;;;13.73;66.67;101684.34;6213789;23;20008;-74
2022/04/16 07:05:26;;;;;;;21.83;11.73;;;;;;;13.71;67.08;101690.09;6191489;23;20427;-73
2022/04/16 07:07:51;;;;;;;14.77;9.77;;;;;;;13.61;66.62;101684.50;6217556;23;20015;-71
2022/04/16 07:10:17;;;;;;;13.40;8.52;;;;;;;13.45;66.85;101677.97;6239192;23;20570;-75
2022/04/16 07:12:42;;;;;;;14.32;7.80;;;;;;;13.37;67.11;101690.19;6213294;23;20001;-73
2022/04/16 07:15:08;;;;;;;12.05;7.63;;;;;;;13.21;67.79;101682.81;6213295;23;20020;-71
2022/04/16 07:17:34;;;;;;;13.98;7.95;;;;;;;13.09;67.58;101685.66;6238315;23;20012;-72
2022/04/16 07:19:59;;;;;;;10.00;6.22;;;;;;;13.13;67.43;101696.97;6215644;23;20469;-72
2022/04/16 07:22:26;;;;;;;13.00;7.43;;;;;;;13.10;67.26;101674.44;6214318;23;20012;-71
2022/04/16 07:24:52;;;;;;;8.88;5.82;;;;;;;13.35;67.31;101700.63;6240700;23;20423;-73
2022/04/16 07:27:17;;;;;;;10.55;5.85;;;;;;;13.60;67.07;101707.56;6242211;23;20012;-70
2022/04/16 07:29:43;;;;;;;11.40;6.13;;;;;;;13.77;65.94;101702.81;6216494;23;20020;-73
2022/04/16 07:32:09;;;;;;;12.10;6.68;;;;;;;14.11;65.60;101713.66;6242915;23;20008;-71
2022/04/16 07:34:34;;;;;;;15.32;9.32;;;;;;;14.35;64.53;101702.34;6188829;23;20011;-72
2022/04/16 07:36:59;;;;;;;16.65;9.40;;;;;;;14.67;63.68;101715.31;6242571;23;20008;-72
2022/04/16 07:39:25;;;;;;;20.20;11.50;;;;;;;15.03;62.88;101717.53;6239141;23;20015;-71
2022/04/16 07:41:51;;;;;;;25.35;13.38;;;;;;;15.15;61.86;101712.66;6242554;23;20008;-72
2022/04/16 07:44:18;;;;;;;28.33;14.13;;;;;;;15.48;61.52;101719.75;6217680;23;20422;-72
2022/04/16 07:46:43;;;;;;;26.50;15.18;;;;;;;15.68;60.06;101721.78;6241232;23;20007;-73
2022/04/16 07:49:09;;;;;;;28.67;14.60;;;;;;;15.96;59.63;101713.34;6216894;23;20012;-72
2022/04/16 07:51:34;;;;;;;28.77;15.13;;;;;;;16.31;59.12;101725.56;6242774;23;20019;-72
2022/04/16 07:54:00;;;;;;;24.65;12.70;;;;;;;16.77;57.94;101725.63;6242076;23;20015;-72
2022/04/16 07:56:26;;;;;;;25.10;14.45;;;;;;;17.10;57.01;101721.50;6216810;23;20004;-74
2022/04/16 07:58:54;;;;;;;28.38;14.32;;;;;;;17.39;56.37;101717.28;6215258;23;20416;-72
2022/04/16 08:01:20;;;;;;;24.02;12.98;;;;;;;17.87;55.74;101714.06;6242963;23;20031;-72
2022/04/16 08:03:45;;;;;;;24.10;13.60;;;;;;;18.36;54.95;101723.53;6211332;23;20016;-72
2022/04/16 08:06:11;;;;;;;23.83;13.25;;;;;;;18.64;53.39;101719.16;6242323;23;20008;-72
2022/04/16 08:08:36;;;;;;;31.95;16.58;;;;;;;19.06;52.14;101725.22;6241210;23;20024;-71
2022/04/16 08:11:02;;;;;;;30.15;15.73;;;;;;;19.60;51.59;101724.06;6216277;23;20035;-74
2022/04/16 08:13:28;;;;;;;38.38;17.83;;;;;;;19.85;49.83;101719.34;6217123;23;20043;-74
2022/04/16 08:15:53;;;;;;;34.72;18.92;;;;;;;20.03;49.30;101726.03;6242111;23;20008;-72
2022/04/16 08:18:19;;;;;;;39.10;19.70;;;;;;;20.23;48.80;101725.75;6242560;23;20099;-70
2022/04/16 08:20:44;;;;;;;30.60;16.52;;;;;;;20.48;48.49;101726.50;6242174;23;20014;-73
2022/04/16 08:23:11;;;;;;;28.40;15.93;;;;;;;20.96;47.89;101731.03;6242288;23;20062;-73
2022/04/16 08:28:06;;;;;;;32.72;19.23;;;;;;;21.39;46.10;101732.72;6251070;23;20427;-74
2022/04/16 08:30:31;;;;;;;30.60;17.33;;;;;;;21.46;46.04;101733.16;6215380;23;20015;-73
2022/04/16 08:32:57;;;;;;;35.33;19.00;;;;;;;21.63;45.11;101738.16;6212688;23;20015;-72
2022/04/16 08:35:23;;;;;;;33.20;18.65;;;;;;;21.62;45.09;101730.91;6214080;23;20008;-73
2022/04/16 08:37:49;;;;;;;32.25;17.98;;;;;;;21.64;45.04;101738.97;6238494;23;20005;-73
2022/04/16 08:40:16;;;;;;;28.95;15.93;;;;;;;21.85;45.00;101728.25;6219299;23;20004;-72
2022/04/16 08:42:45;;;;;;;30.52;15.50;;;;;;;22.13;44.44;101743.75;6217100;23;20011;-72
2022/04/16 08:45:12;;;;;;;34.10;18.33;;;;;;;22.41;43.28;101742.88;6240471;23;20000;-74
2022/04/16 08:47:39;;;;;;;33.22;18.90;;;;;;;23.04;41.97;101741.03;6216110;23;20086;-73
2022/04/16 08:50:07;;;;;;;32.60;17.48;;;;;;;24.64;39.27;101756.00;6239035;23;20026;-72
2022/04/16 08:52:35;;;;;;;24.27;14.15;;;;;;;26.96;35.53;101751.03;6191281;23;20015;-74
2022/04/16 08:55:03;;;;;;;32.38;18.00;;;;;;;28.98;31.74;101758.19;6241468;23;20000;-73
2022/04/16 08:57:29;;;;;;;23.00;13.75;;;;;;;30.86;29.32;101751.34;6240891;23;20418;-72
2022/04/16 08:59:57;;;;;;;26.83;15.15;;;;;;;32.32;27.03;101745.66;6210930;23;20004;-75
2022/04/16 09:02:27;;;;;;;24.40;12.93;;;;;;;33.61;25.92;101760.38;6213377;23;20014;-72
2022/04/16 09:05:39;;;;;;;31.55;17.02;;;;;;;34.34;23.85;101758.84;6209730;23;20031;-74
2022/04/16 09:11:27;;;;;;;20.75;14.13;;;;;;;34.78;21.67;101760.63;6239163;23;20014;-73
2022/04/16 09:13:54;;;;;;;20.63;13.40;;;;;;;34.93;21.81;101767.16;6243175;23;20451;-73
2022/04/16 09:16:20;;;;;;;22.23;14.23;;;;;;;35.18;21.32;101761.53;6245745;23;20020;-74
2022/04/16 09:18:47;;;;;;;24.75;12.82;;;;;;;35.17;21.52;101759.91;6221634;23;20012;-72
2022/04/16 09:21:13;;;;;;;20.23;11.85;;;;;;;35.36;21.17;101763.59;6220287;23;20011;-73
2022/04/16 09:23:50;;;;;;;22.42;13.38;;;;;;;35.25;20.64;101761.53;6252324;23;20008;-74
2022/04/16 09:26:24;;;;;;;26.55;13.70;;;;;;;34.50;21.19;101772.69;6226575;23;20042;-74
2022/04/16 09:29:10;;;;;;;18.38;11.93;;;;;;;33.46;22.40;101770.00;6252483;23;20023;-75
2022/04/16 09:31:38;;;;;;;20.88;13.15;;;;;;;33.06;22.68;101755.44;6252544;23;20372;-74
2022/04/16 09:34:27;;;;;;;16.38;11.32;;;;;;;34.14;22.17;101766.81;6250419;23;20015;-75
2022/04/16 09:40:17;;;;;;;24.58;14.43;;;;;;;36.49;18.93;101740.19;6252422;23;20047;-75
2022/04/16 09:46:35;;;;;;;17.55;11.70;;;;;;;37.70;17.92;101748.28;6124919;23;20017;-74
2022/04/16 09:49:47;;;;;;;;;;;;;;;;;;;;;
2022/04/16 09:52:23;;;;;;;30.42;14.70;;;;;;;38.61;17.03;101766.03;6125451;23;20081;-75
2022/04/16 09:54:50;;;;;;;21.35;13.82;;;;;;;38.84;16.93;101756.72;6123101;23;20012;-75
2022/04/16 09:57:21;;;;;;;21.85;14.48;;;;;;;37.79;17.41;101768.59;6130718;23;20023;-72
2022/04/16 09:59:52;;;;;;;18.92;12.30;;;;;;;38.00;17.78;101761.06;6247438;23;20070;-74
2022/04/16 10:02:18;;;;;;;15.85;9.13;;;;;;;37.89;17.76;101764.00;6248292;23;20000;-74
2022/04/16 10:04:45;;;;;;;10.07;6.65;;;;;;;38.90;17.91;101755.00;6197801;23;20378;-74
2022/04/16 10:07:19;;;;;;;26.48;15.10;;;;;;;38.58;16.79;101766.84;6248387;23;20022;-72
2022/04/16 10:09:46;;;;;;;24.02;15.15;;;;;;;38.66;16.90;101762.69;6222696;23;20012;-72
2022/04/16 10:15:28;;;;;;;13.75;8.80;;;;;;;39.28;16.98;101743.38;6246959;22;20031;-73
2022/04/16 10:17:54;;;;;;;12.35;8.20;;;;;;;40.23;16.11;101745.31;6215718;23;20013;-73
2022/04/16 10:20:21;;;;;;;17.33;10.48;;;;;;;41.47;15.32;101751.44;6220319;23;20014;-73
2022/04/16 10:23:41;;;;;;;7.20;4.95;;;;;;;42.50;14.97;101756.78;6218976;23;20011;-71
2022/04/16 10:26:17;;;;;;;8.40;6.18;;;;;;;43.27;14.35;101755.94;6158602;23;20005;-73
2022/04/16 10:28:51;;;;;;;15.40;9.07;;;;;;;42.24;13.99;101750.19;6195930;23;20095;-72
2022/04/16 10:31:25;;;;;;;13.88;8.52;;;;;;;41.20;14.95;101742.31;6246658;23;20481;-75
2022/04/16 10:34:29;;;;;;;13.98;7.55;;;;;;;41.98;14.87;101738.56;6220905;23;20094;-72
2022/04/16 10:36:55;;;;;;;13.40;8.60;;;;;;;42.86;13.44;101744.97;6246952;23;20004;-74
2022/04/16 10:39:27;;;;;;;22.00;13.18;;;;;;;42.36;13.49;101740.75;6195859;23;20034;-74
2022/04/16 10:41:58;;;;;;;14.75;9.43;;;;;;;41.74;14.18;101735.94;6246135;23;20007;-72
2022/04/16 10:44:26;;;;;;;12.00;8.35;;;;;;;42.80;13.79;101745.97;6205098;23;20103;-71
2022/04/16 10:47:04;;;;;;;8.70;5.82;;;;;;;44.42;12.48;101731.63;6241441;23;20004;-72
2022/04/16 10:53:34;;;;;;;7.07;4.85;;;;;;;44.70;12.40;101732.59;6268218;22;20031;-74
2022/04/16 10:56:30;;;;;;;6.38;4.22;;;;;;;45.53;12.09;101734.84;6270991;22;20004;-73
2022/04/16 10:59:01;;;;;;;14.43;6.75;;;;;;;45.80;10.73;101718.81;6270023;22;20027;-73
2022/04/16 11:01:29;;;;;;;6.82;4.28;;;;;;;45.12;11.63;101723.44;6245230;22;20478;-73
2022/04/16 11:03:55;;;;;;;3.97;2.45;;;;;;;46.73;11.39;101736.69;6273479;22;20053;-73
2022/04/16 11:06:31;;;;;;;6.63;4.20;;;;;;;46.95;9.80;101735.63;6246585;22;20027;-72
2022/04/16 11:08:58;;;;;;;11.43;6.20;;;;;;;43.98;10.49;101729.56;6273514;22;20003;-74
2022/04/16 11:11:23;;;;;;;6.35;4.10;;;;;;;43.27;11.64;101719.38;6247012;22;20090;-75
2022/04/16 11:13:50;;;;;;;14.57;8.95;;;;;;;43.44;10.96;101725.78;6223386;22;20095;-74
2022/04/16 11:16:20;;;;;;;9.40;6.53;;;;;;;43.54;11.20;101724.56;6246721;22;20013;-71
2022/04/16 11:18:47;;;;;;;11.27;6.38;;;;;;;42.83;11.42;101722.88;6248017;22;20000;-74
2022/04/16 11:21:34;;;;;;;6.05;4.15;;;;;;;44.08;11.04;101728.34;6245312;22;20087;-73
2022/04/16 11:24:05;;;;;;;8.43;4.57;;;;;;;44.25;10.37;101720.34;6275393;22;20004;-72
2022/04/16 11:34:44;;;;;;;6.43;4.65;;;;;;;44.08;9.63;101713.94;6251158;22;20022;-73
2022/04/16 11:37:10;;;;;;;4.80;2.60;;;;;;;43.50;10.49;101723.91;6271108;22;20008;-73
2022/04/16 11:39:36;;;;;;;5.65;2.40;;;;;;;42.89;10.72;101715.28;6272745;22;20090;-73
2022/04/16 11:42:07;;;;;;;4.63;2.83;;;;;;;43.32;10.16;101700.69;6272745;22;20079;-74
2022/04/16 11:44:45;;;;;;;3.85;2.20;;;;;;;44.31;10.09;101702.41;6272289;22;20082;-73
2022/04/16 11:47:13;;;;;;;3.30;1.15;;;;;;;45.90;9.87;101705.97;6272465;22;20004;-72
2022/04/16 11:49:56;;;;;;;7.05;2.40;;;;;;;48.15;8.35;101701.97;6246392;22;20492;-75
2022/04/16 11:52:23;;;;;;;3.50;1.65;;;;;;;48.23;8.05;101711.88;6274888;22;20076;-75
2022/04/16 11:55:03;;;;;;;1.08;0.93;;;;;;;48.61;7.98;101707.22;6274201;22;20057;-74
2022/04/16 11:57:29;;;;;;;2.38;1.20;;;;;;;49.74;7.85;101705.78;6274211;22;20049;-74
2022/04/16 12:00:07;;;;;;;4.30;1.63;;;;;;;49.30;7.28;101701.06;6247832;22;20011;-73
2022/04/16 12:02:38;;;;;;;3.13;1.70;;;;;;;48.72;7.35;101707.38;6245947;22;20007;-74
2022/04/16 12:05:08;;;;;;;1.65;1.25;;;;;;;48.92;7.06;101705.84;6273223;22;20426;-74
2022/04/16 12:07:40;;;;;;;2.00;1.50;;;;;;;47.74;7.54;101701.78;6274103;22;20006;-73
2022/04/16 12:10:06;;;;;;;1.58;1.23;;;;;;;47.14;8.44;101692.91;6223539;22;20015;-73
2022/04/16 12:12:43;;;;;;;4.38;1.55;;;;;;;47.76;8.13;101696.28;6218272;22;20462;-73
2022/04/16 12:15:09;;;;;;;3.03;1.33;;;;;;;47.10;8.06;101701.00;6241570;22;20008;-74
2022/04/16 12:17:39;;;;;;;1.60;1.13;;;;;;;47.43;8.25;101685.63;6238641;22;20003;-72
2022/04/16 12:20:10;;;;;;;3.58;1.25;;;;;;;48.47;7.37;101696.47;6265040;22;20696;-74
2022/04/16 12:23:05;;;;;;;1.92;0.90;;;;;;;48.66;7.94;101699.91;6266325;22;20668;-73
2022/04/16 12:25:32;;;;;;;3.78;1.42;;;;;;;49.07;7.06;101689.16;6240024;22;20046;-73
2022/04/16 12:27:59;;;;;;;1.83;1.13;;;;;;;49.15;7.11;101694.53;6214912;22;20018;-72
2022/04/16 12:30:29;;;;;;;3.55;1.50;;;;;;;49.77;6.78;101690.22;6243586;22;20015;-73
2022/04/16 12:32:59;;;;;;;1.10;0.90;;;;;;;51.27;6.52;101688.59;6272028;22;20053;-73
2022/04/16 12:35:26;;;;;;;2.25;1.63;;;;;;;52.02;5.73;101697.00;6245201;22;20082;-73
2022/04/16 12:37:53;;;;;;;3.17;1.55;;;;;;;52.54;5.29;101707.28;6243747;22;20012;-74
2022/04/16 12:40:19;;;;;;;2.85;1.38;;;;;;;52.27;5.27;101688.44;6270774;22;20375;-72
2022/04/16 12:42:44;;;;;;;3.22;1.23;;;;;;;51.68;5.46;101688.19;6271666;22;20004;-73
2022/04/16 12:45:10;;;;;;;3.45;1.63;;;;;;;50.90;5.71;101677.84;6240587;22;20042;-74
2022/04/16 12:47:35;;;;;;;2.38;0.85;;;;;;;50.92;6.31;101683.94;6272854;22;20006;-74
2022/04/16 12:50:01;;;;;;;2.03;1.00;;;;;;;51.65;6.06;101680.47;6239923;22;20012;-74
2022/04/16 12:52:26;;;;;;;2.50;1.50;;;;;;;51.71;5.25;101678.38;6270973;22;20024;-73
2022/04/16 12:54:52;;;;;;;2.60;1.13;;;;;;;51.76;5.54;101677.59;6271692;22;20086;-73
2022/04/16 12:57:17;;;;;;;2.00;0.93;;;;;;;52.09;5.77;101678.94;6268356;22;20075;-71
2022/04/16 12:59:43;;;;;;;2.63;1.20;;;;;;;51.18;5.49;101677.19;6245915;22;20019;-74
2022/04/16 13:02:08;;;;;;;3.20;1.17;;;;;;;51.08;5.81;101677.41;6244781;22;20022;-72
2022/04/16 13:04:33;;;;;;;2.35;1.48;;;;;;;51.41;5.85;101678.06;6270300;22;20034;-74
2022/04/16 13:06:59;;;;;;;2.97;1.45;;;;;;;51.05;5.66;101672.63;6245292;22;20449;-75
2022/04/16 13:09:24;;;;;;;3.58;1.40;;;;;;;50.96;5.65;101669.94;6270514;22;20366;-72
2022/04/16 13:11:51;;;;;;;1.02;0.80;;;;;;;51.25;5.84;101662.13;6244637;22;20007;-72
2022/04/16 13:14:17;;;;;;;3.30;1.70;;;;;;;50.72;5.94;101668.25;6275531;22;20276;-74
2022/04/16 13:16:42;;;;;;;3.53;1.40;;;;;;;50.45;6.10;101670.44;6272143;22;20011;-71